EDW598 LSZH-TXKF
Flight info
| Callsign | EDW598 |
|---|---|
| Flight time | N/A |
| Altitude | 32000 |
| Route | ZUE T163 LADOL DCT PITES DCT DENUT L610 KOPUL Q60 OKSAW DCT PENWU DCT ELTIG DCT AMDEP/N0477F340 DCT LEKVA/M083F340 DCT 50N022W 48N030W 46N038W 44N045W/M083F360 41N051W/M083F380 37N056W DCT BALOO |
| Aircraft | A343/H-SDE2E3FGHIJ4J5M1RWXY/LB1D1 |
Departure
| Time | 2026-02-17 12:29 |
|---|---|
| Airport | Zürich Airport (LSZH) |
Arrival
| Time | N/A |
|---|---|
| Airport | L.F. Wade International Airport (TXKF) |
| Time | Latitude | Longitude | Altitude | Speed | Heading |
|---|---|---|---|---|---|
| 2026-02-17 11:52 | 47.46167 | 8.55782 | 1411 ft | 0 kts | 186° |
| 2026-02-17 12:00 | 47.46155 | 8.55780 | 1411 ft | 0 kts | 185° |
| 2026-02-17 12:15 | 47.46165 | 8.55782 | 1401 ft | 3 kts | 186° |
| 2026-02-17 12:16 | 47.46184 | 8.55785 | 1410 ft | 2 kts | 186° |
| 2026-02-17 12:16 | 47.46203 | 8.55786 | 1409 ft | 3 kts | 167° |
| 2026-02-17 12:16 | 47.46221 | 8.55776 | 1409 ft | 3 kts | 139° |
| 2026-02-17 12:16 | 47.46234 | 8.55754 | 1411 ft | 3 kts | 114° |
| 2026-02-17 12:17 | 47.46240 | 8.55726 | 1410 ft | 3 kts | 99° |
| 2026-02-17 12:17 | 47.46241 | 8.55714 | 1409 ft | 1 kts | 96° |
| 2026-02-17 12:17 | 47.46242 | 8.55704 | 1408 ft | 2 kts | 96° |
| 2026-02-17 12:17 | 47.46244 | 8.55676 | 1407 ft | 2 kts | 96° |
| 2026-02-17 12:18 | 47.46244 | 8.55670 | 1406 ft | 0 kts | 96° |
| 2026-02-17 12:23 | 47.46243 | 8.55692 | 1408 ft | 8 kts | 96° |
| 2026-02-17 12:23 | 47.46234 | 8.55810 | 1404 ft | 12 kts | 96° |
| 2026-02-17 12:23 | 47.46227 | 8.55893 | 1405 ft | 12 kts | 96° |
| 2026-02-17 12:24 | 47.46205 | 8.56003 | 1410 ft | 10 kts | 127° |
| 2026-02-17 12:24 | 47.46163 | 8.56060 | 1414 ft | 8 kts | 139° |
| 2026-02-17 12:24 | 47.46081 | 8.56171 | 1414 ft | 19 kts | 136° |
| 2026-02-17 12:24 | 47.45988 | 8.56299 | 1414 ft | 17 kts | 138° |
| 2026-02-17 12:25 | 47.45903 | 8.56410 | 1415 ft | 16 kts | 138° |
| 2026-02-17 12:25 | 47.45819 | 8.56525 | 1412 ft | 17 kts | 132° |
| 2026-02-17 12:25 | 47.45790 | 8.56681 | 1410 ft | 16 kts | 93° |
| 2026-02-17 12:25 | 47.45779 | 8.56851 | 1406 ft | 17 kts | 96° |
| 2026-02-17 12:26 | 47.45770 | 8.56966 | 1400 ft | 7 kts | 102° |
| 2026-02-17 12:26 | 47.45754 | 8.57010 | 1403 ft | 0 kts | 127° |
| 2026-02-17 12:27 | 47.45754 | 8.57011 | 1402 ft | 0 kts | 127° |
| 2026-02-17 12:27 | 47.45745 | 8.57023 | 1408 ft | 5 kts | 139° |
| 2026-02-17 12:27 | 47.45701 | 8.57037 | 1404 ft | 7 kts | 182° |
| 2026-02-17 12:28 | 47.45662 | 8.57004 | 1411 ft | 4 kts | 239° |
| 2026-02-17 12:28 | 47.45663 | 8.56968 | 1411 ft | 4 kts | 274° |
| 2026-02-17 12:28 | 47.45679 | 8.56735 | 1406 ft | 52 kts | 276° |
| 2026-02-17 12:28 | 47.45738 | 8.55925 | 1409 ft | 105 kts | 276° |
| 2026-02-17 12:29 | 47.45825 | 8.54612 | 1421 ft | 148 kts | 272° |
| 2026-02-17 12:29 | 47.45915 | 8.53095 | 1948 ft | 146 kts | 271° |
| 2026-02-17 12:29 | 47.45905 | 8.51600 | 2581 ft | 144 kts | 269° |
| 2026-02-17 12:29 | 47.45851 | 8.50062 | 2926 ft | 159 kts | 263° |
| 2026-02-17 12:30 | 47.45569 | 8.48404 | 3155 ft | 174 kts | 256° |
| 2026-02-17 12:30 | 47.45193 | 8.46598 | 3359 ft | 195 kts | 255° |
| 2026-02-17 12:30 | 47.44710 | 8.44607 | 3651 ft | 216 kts | 251° |
| 2026-02-17 12:31 | 47.43348 | 8.40429 | 4724 ft | 234 kts | 248° |
| 2026-02-17 12:31 | 47.42504 | 8.38351 | 5407 ft | 242 kts | 237° |
| 2026-02-17 12:31 | 47.41149 | 8.36783 | 6064 ft | 259 kts | 210° |
| 2026-02-17 12:31 | 47.39312 | 8.36403 | 6651 ft | 281 kts | 178° |
| 2026-02-17 12:32 | 47.37476 | 8.37601 | 7210 ft | 302 kts | 144° |
| 2026-02-17 12:32 | 47.36228 | 8.40147 | 7773 ft | 315 kts | 110° |
| 2026-02-17 12:32 | 47.35969 | 8.43333 | 8353 ft | 316 kts | 78° |
| 2026-02-17 12:32 | 47.36784 | 8.46260 | 8959 ft | 307 kts | 45° |
| 2026-02-17 12:33 | 47.38320 | 8.48368 | 9591 ft | 300 kts | 32° |
| 2026-02-17 12:33 | 47.39944 | 8.50336 | 10169 ft | 304 kts | 34° |
| 2026-02-17 12:33 | 47.41510 | 8.52460 | 10723 ft | 308 kts | 38° |
| 2026-02-17 12:33 | 47.43021 | 8.54711 | 11315 ft | 310 kts | 40° |
| 2026-02-17 12:34 | 47.44501 | 8.57043 | 11910 ft | 311 kts | 41° |
| 2026-02-17 12:34 | 47.45958 | 8.59414 | 12472 ft | 313 kts | 41° |
| 2026-02-17 12:34 | 47.47407 | 8.61810 | 13046 ft | 314 kts | 41° |
| 2026-02-17 12:35 | 47.50319 | 8.66687 | 14077 ft | 318 kts | 42° |
| 2026-02-17 12:35 | 47.51787 | 8.69161 | 14584 ft | 319 kts | 41° |
| 2026-02-17 12:35 | 47.53235 | 8.71608 | 15049 ft | 320 kts | 41° |
| 2026-02-17 12:35 | 47.54710 | 8.74103 | 15501 ft | 322 kts | 41° |
| 2026-02-17 12:36 | 47.56185 | 8.76601 | 16004 ft | 322 kts | 40° |
| 2026-02-17 12:36 | 47.57664 | 8.79111 | 16462 ft | 324 kts | 40° |
| 2026-02-17 12:36 | 47.59272 | 8.81389 | 16899 ft | 313 kts | 23° |
| 2026-02-17 12:36 | 47.61185 | 8.82826 | 17201 ft | 310 kts | 13° |
| 2026-02-17 12:37 | 47.63229 | 8.83838 | 17426 ft | 314 kts | 7° |
| 2026-02-17 12:37 | 47.65347 | 8.84639 | 17702 ft | 320 kts | 5° |
| 2026-02-17 12:37 | 47.67574 | 8.85406 | 17990 ft | 329 kts | 5° |
| 2026-02-17 12:37 | 47.69835 | 8.86195 | 18226 ft | 338 kts | 5° |
| 2026-02-17 12:38 | 47.72136 | 8.87043 | 18437 ft | 348 kts | 6° |
| 2026-02-17 12:38 | 47.74483 | 8.87953 | 18674 ft | 356 kts | 7° |
| 2026-02-17 12:38 | 47.76929 | 8.88926 | 18902 ft | 363 kts | 6° |
| 2026-02-17 12:39 | 47.81979 | 8.90116 | 19408 ft | 372 kts | 360° |
| 2026-02-17 12:39 | 47.84561 | 8.90552 | 19778 ft | 375 kts | 359° |
| 2026-02-17 12:39 | 47.87166 | 8.90913 | 20201 ft | 374 kts | 355° |
| 2026-02-17 12:39 | 47.89734 | 8.90781 | 20618 ft | 367 kts | 346° |
| 2026-02-17 12:40 | 47.92190 | 8.89858 | 21188 ft | 358 kts | 334° |
| 2026-02-17 12:40 | 47.94364 | 8.88125 | 21644 ft | 353 kts | 321° |
| 2026-02-17 12:40 | 47.96044 | 8.85466 | 22032 ft | 355 kts | 305° |
| 2026-02-17 12:40 | 47.97219 | 8.82213 | 22447 ft | 359 kts | 297° |
| 2026-02-17 12:41 | 47.98128 | 8.78736 | 22881 ft | 361 kts | 294° |
| 2026-02-17 12:41 | 47.98952 | 8.75177 | 23292 ft | 363 kts | 293° |
| 2026-02-17 12:41 | 47.99779 | 8.71615 | 23626 ft | 364 kts | 294° |
| 2026-02-17 12:41 | 48.00706 | 8.68103 | 23943 ft | 362 kts | 299° |
| 2026-02-17 12:42 | 48.01922 | 8.64832 | 24303 ft | 359 kts | 307° |
| 2026-02-17 12:42 | 48.03439 | 8.61965 | 24653 ft | 357 kts | 313° |
| 2026-02-17 12:42 | 48.05149 | 8.59270 | 25016 ft | 356 kts | 315° |
| 2026-02-17 12:43 | 48.08719 | 8.54153 | 25717 ft | 355 kts | 317° |
| 2026-02-17 12:43 | 48.10519 | 8.51659 | 26242 ft | 349 kts | 317° |
| 2026-02-17 12:43 | 48.12290 | 8.49204 | 26779 ft | 345 kts | 318° |
| 2026-02-17 12:43 | 48.14051 | 8.46752 | 27011 ft | 348 kts | 318° |
| 2026-02-17 12:44 | 48.15825 | 8.44265 | 27178 ft | 351 kts | 318° |
| 2026-02-17 12:44 | 48.17605 | 8.41756 | 27455 ft | 351 kts | 318° |
| 2026-02-17 12:44 | 48.19382 | 8.39240 | 27757 ft | 351 kts | 318° |
| 2026-02-17 12:44 | 48.21157 | 8.36721 | 28081 ft | 351 kts | 318° |
| 2026-02-17 12:45 | 48.22929 | 8.34200 | 28357 ft | 352 kts | 318° |
| 2026-02-17 12:45 | 48.24707 | 8.31671 | 28601 ft | 352 kts | 318° |
| 2026-02-17 12:45 | 48.26480 | 8.29147 | 28985 ft | 350 kts | 318° |
| 2026-02-17 12:45 | 48.28238 | 8.26639 | 29476 ft | 346 kts | 319° |
| 2026-02-17 12:46 | 48.29968 | 8.24171 | 30008 ft | 341 kts | 319° |
| 2026-02-17 12:46 | 48.31681 | 8.21724 | 30298 ft | 339 kts | 319° |
| 2026-02-17 12:46 | 48.33391 | 8.19280 | 30477 ft | 340 kts | 319° |
| 2026-02-17 12:47 | 48.36813 | 8.14387 | 30973 ft | 339 kts | 319° |
| 2026-02-17 12:47 | 48.38524 | 8.11936 | 31234 ft | 338 kts | 319° |
| 2026-02-17 12:47 | 48.40228 | 8.09495 | 31481 ft | 338 kts | 319° |
| 2026-02-17 12:47 | 48.41922 | 8.07061 | 31749 ft | 337 kts | 319° |
| 2026-02-17 12:48 | 48.43601 | 8.04647 | 31914 ft | 337 kts | 319° |
| 2026-02-17 12:48 | 48.46951 | 7.99822 | 31937 ft | 330 kts | 319° |
| 2026-02-17 12:49 | 48.50253 | 7.95061 | 31935 ft | 328 kts | 319° |
| 2026-02-17 12:49 | 48.53556 | 7.90292 | 31935 ft | 329 kts | 319° |
| 2026-02-17 12:50 | 48.56858 | 7.85514 | 31936 ft | 329 kts | 319° |
| 2026-02-17 12:50 | 48.60159 | 7.80726 | 31914 ft | 328 kts | 318° |
| 2026-02-17 12:51 | 48.65096 | 7.73549 | 31928 ft | 328 kts | 318° |
| 2026-02-17 12:51 | 48.68383 | 7.68759 | 31945 ft | 328 kts | 318° |
| 2026-02-17 12:52 | 48.71646 | 7.63996 | 31922 ft | 328 kts | 318° |
| 2026-02-17 12:52 | 48.74929 | 7.59194 | 31920 ft | 328 kts | 318° |
| 2026-02-17 12:53 | 48.78214 | 7.54380 | 31916 ft | 328 kts | 318° |
| 2026-02-17 12:53 | 48.81496 | 7.49561 | 31929 ft | 328 kts | 318° |
| 2026-02-17 12:54 | 48.84780 | 7.44729 | 31858 ft | 328 kts | 318° |
| 2026-02-17 12:55 | 48.89725 | 7.37435 | 31915 ft | 332 kts | 318° |
| 2026-02-17 12:55 | 48.93035 | 7.32541 | 31907 ft | 332 kts | 317° |
| 2026-02-17 12:56 | 48.96340 | 7.27649 | 31899 ft | 331 kts | 318° |
| 2026-02-17 12:56 | 48.99638 | 7.22753 | 31895 ft | 331 kts | 318° |
| 2026-02-17 12:57 | 49.02935 | 7.17851 | 31896 ft | 331 kts | 318° |
| 2026-02-17 12:57 | 49.06229 | 7.12942 | 31887 ft | 331 kts | 317° |
| 2026-02-17 12:58 | 49.09508 | 7.08048 | 31918 ft | 332 kts | 317° |
| 2026-02-17 12:58 | 49.12799 | 7.03125 | 31882 ft | 331 kts | 317° |
| 2026-02-17 12:59 | 49.17724 | 6.95741 | 31886 ft | 331 kts | 317° |
| 2026-02-17 12:59 | 49.21007 | 6.90804 | 31886 ft | 331 kts | 317° |
| 2026-02-17 13:00 | 49.24288 | 6.85868 | 31910 ft | 331 kts | 317° |
| 2026-02-17 13:00 | 49.27562 | 6.80927 | 31906 ft | 330 kts | 317° |
| 2026-02-17 13:01 | 49.30833 | 6.75979 | 31912 ft | 331 kts | 317° |
| 2026-02-17 13:01 | 49.34108 | 6.71015 | 31918 ft | 331 kts | 317° |
| 2026-02-17 13:02 | 49.37380 | 6.66049 | 31902 ft | 331 kts | 316° |
| 2026-02-17 13:03 | 49.42296 | 6.58568 | 31910 ft | 331 kts | 316° |
| 2026-02-17 13:03 | 49.45570 | 6.53573 | 31907 ft | 332 kts | 316° |
| 2026-02-17 13:04 | 49.48842 | 6.48571 | 31913 ft | 332 kts | 316° |
| 2026-02-17 13:04 | 49.52113 | 6.43562 | 31914 ft | 332 kts | 316° |
| 2026-02-17 13:05 | 49.55377 | 6.38553 | 31911 ft | 331 kts | 316° |
| 2026-02-17 13:05 | 49.58624 | 6.33560 | 31930 ft | 331 kts | 316° |
| 2026-02-17 13:06 | 49.61875 | 6.28550 | 31879 ft | 330 kts | 316° |
| 2026-02-17 13:06 | 49.65138 | 6.23512 | 31913 ft | 332 kts | 315° |
| 2026-02-17 13:07 | 49.69494 | 6.16771 | 31910 ft | 332 kts | 315° |
| 2026-02-17 13:07 | 49.72757 | 6.11709 | 31909 ft | 333 kts | 315° |
| 2026-02-17 13:08 | 49.76018 | 6.06639 | 31911 ft | 332 kts | 315° |
| 2026-02-17 13:08 | 49.79279 | 6.01561 | 31909 ft | 333 kts | 315° |
| 2026-02-17 13:09 | 49.82533 | 5.96484 | 31928 ft | 333 kts | 315° |
| 2026-02-17 13:09 | 49.85787 | 5.91395 | 31918 ft | 332 kts | 315° |
| 2026-02-17 13:10 | 49.89044 | 5.86291 | 31922 ft | 334 kts | 315° |
| 2026-02-17 13:11 | 49.93926 | 5.78619 | 31918 ft | 334 kts | 315° |
| 2026-02-17 13:11 | 49.97192 | 5.73475 | 31940 ft | 334 kts | 315° |
| 2026-02-17 13:12 | 50.00478 | 5.68290 | 31940 ft | 335 kts | 315° |
| 2026-02-17 13:12 | 50.03721 | 5.63162 | 31924 ft | 335 kts | 315° |
| 2026-02-17 13:13 | 50.06983 | 5.57992 | 31955 ft | 335 kts | 315° |
| 2026-02-17 13:13 | 50.10231 | 5.52833 | 31930 ft | 333 kts | 315° |
| 2026-02-17 13:14 | 50.13469 | 5.47681 | 31911 ft | 333 kts | 314° |
| 2026-02-17 13:14 | 50.16747 | 5.42456 | 31935 ft | 342 kts | 314° |
| 2026-02-17 13:15 | 50.21755 | 5.34446 | 31937 ft | 343 kts | 314° |
| 2026-02-17 13:15 | 50.25078 | 5.29119 | 31955 ft | 342 kts | 314° |
| 2026-02-17 13:16 | 50.28396 | 5.23789 | 31935 ft | 342 kts | 314° |
| 2026-02-17 13:16 | 50.31696 | 5.18475 | 31958 ft | 342 kts | 314° |
| 2026-02-17 13:17 | 50.34994 | 5.13156 | 31942 ft | 340 kts | 314° |
| 2026-02-17 13:17 | 50.38284 | 5.07836 | 31887 ft | 340 kts | 314° |
| 2026-02-17 13:18 | 50.41581 | 5.02496 | 31937 ft | 341 kts | 314° |
| 2026-02-17 13:19 | 50.46529 | 4.94456 | 31950 ft | 341 kts | 313° |
| 2026-02-17 13:19 | 50.49822 | 4.89092 | 31950 ft | 341 kts | 313° |
| 2026-02-17 13:20 | 50.53113 | 4.83719 | 31947 ft | 341 kts | 313° |
| 2026-02-17 13:20 | 50.56400 | 4.78340 | 31966 ft | 341 kts | 313° |
| 2026-02-17 13:21 | 50.59676 | 4.72971 | 31958 ft | 340 kts | 313° |
| 2026-02-17 13:21 | 50.62946 | 4.67598 | 31955 ft | 340 kts | 313° |
| 2026-02-17 13:22 | 50.66213 | 4.62219 | 31964 ft | 341 kts | 313° |
| 2026-02-17 13:22 | 50.69468 | 4.56849 | 31963 ft | 341 kts | 313° |
| 2026-02-17 13:23 | 50.74373 | 4.48734 | 31963 ft | 341 kts | 313° |
| 2026-02-17 13:23 | 50.77642 | 4.43309 | 31963 ft | 341 kts | 313° |
| 2026-02-17 13:24 | 50.80907 | 4.37882 | 31983 ft | 340 kts | 313° |
| 2026-02-17 13:24 | 50.84154 | 4.32472 | 31967 ft | 338 kts | 313° |
| 2026-02-17 13:25 | 50.87399 | 4.27053 | 31967 ft | 339 kts | 313° |
| 2026-02-17 13:25 | 50.90638 | 4.21633 | 31967 ft | 339 kts | 313° |
| 2026-02-17 13:26 | 50.93874 | 4.16205 | 31968 ft | 339 kts | 313° |
| 2026-02-17 13:27 | 50.98724 | 4.08051 | 31971 ft | 339 kts | 312° |
| 2026-02-17 13:27 | 51.01949 | 4.02611 | 31972 ft | 339 kts | 312° |
| 2026-02-17 13:28 | 51.05178 | 3.97155 | 31971 ft | 338 kts | 312° |
| 2026-02-17 13:28 | 51.08405 | 3.91690 | 31975 ft | 339 kts | 312° |
| 2026-02-17 13:29 | 51.11625 | 3.86225 | 31967 ft | 339 kts | 312° |
| 2026-02-17 13:29 | 51.14824 | 3.80785 | 31966 ft | 339 kts | 312° |
| 2026-02-17 13:30 | 51.18062 | 3.75264 | 31970 ft | 340 kts | 311° |
| 2026-02-17 13:30 | 51.21155 | 3.69630 | 31970 ft | 340 kts | 307° |
| 2026-02-17 13:31 | 51.24386 | 3.59544 | 31986 ft | 346 kts | 293° |
| 2026-02-17 13:31 | 51.25584 | 3.52055 | 31979 ft | 350 kts | 289° |
| 2026-02-17 13:32 | 51.26534 | 3.44419 | 31979 ft | 351 kts | 288° |
| 2026-02-17 13:32 | 51.27480 | 3.36775 | 31999 ft | 351 kts | 289° |
| 2026-02-17 13:33 | 51.28441 | 3.29141 | 32000 ft | 350 kts | 288° |
| 2026-02-17 13:33 | 51.29408 | 3.21536 | 32024 ft | 349 kts | 288° |
| 2026-02-17 13:34 | 51.30369 | 3.14002 | 32009 ft | 348 kts | 288° |
| 2026-02-17 13:35 | 51.31808 | 3.02649 | 32016 ft | 347 kts | 288° |
| 2026-02-17 13:35 | 51.32760 | 2.95082 | 32018 ft | 347 kts | 288° |
| 2026-02-17 13:36 | 51.33707 | 2.87506 | 32011 ft | 347 kts | 288° |
| 2026-02-17 13:36 | 51.34650 | 2.79918 | 32013 ft | 347 kts | 288° |
| 2026-02-17 13:37 | 51.35589 | 2.72343 | 32016 ft | 347 kts | 288° |
| 2026-02-17 13:37 | 51.36525 | 2.64767 | 32016 ft | 347 kts | 288° |
| 2026-02-17 13:38 | 51.37455 | 2.57191 | 32021 ft | 347 kts | 287° |
| 2026-02-17 13:38 | 51.38381 | 2.49600 | 32014 ft | 347 kts | 287° |
| 2026-02-17 13:39 | 51.39761 | 2.38220 | 31988 ft | 347 kts | 287° |
| 2026-02-17 13:39 | 51.40671 | 2.30669 | 32014 ft | 348 kts | 287° |
| 2026-02-17 13:40 | 51.41589 | 2.23054 | 32038 ft | 348 kts | 287° |
| 2026-02-17 13:40 | 51.42519 | 2.15440 | 32025 ft | 348 kts | 287° |
| 2026-02-17 13:41 | 51.43447 | 2.07827 | 32032 ft | 348 kts | 287° |
| 2026-02-17 13:41 | 51.44369 | 2.00212 | 32033 ft | 348 kts | 287° |
| 2026-02-17 13:42 | 51.45277 | 1.92573 | 32032 ft | 348 kts | 287° |
| 2026-02-17 13:43 | 51.46623 | 1.81096 | 32045 ft | 350 kts | 286° |
| 2026-02-17 13:43 | 51.47501 | 1.73460 | 32045 ft | 350 kts | 286° |
| 2026-02-17 13:44 | 51.48380 | 1.65772 | 32048 ft | 350 kts | 286° |
| 2026-02-17 13:44 | 51.49258 | 1.58086 | 32048 ft | 350 kts | 286° |
| 2026-02-17 13:45 | 51.50131 | 1.50394 | 32050 ft | 350 kts | 286° |
| 2026-02-17 13:45 | 51.50998 | 1.42702 | 32025 ft | 350 kts | 285° |
| 2026-02-17 13:46 | 51.51866 | 1.34971 | 32050 ft | 353 kts | 285° |
| 2026-02-17 13:46 | 51.52731 | 1.27218 | 32048 ft | 353 kts | 285° |
| 2026-02-17 13:47 | 51.54018 | 1.15575 | 32048 ft | 353 kts | 285° |
| 2026-02-17 13:47 | 51.54758 | 1.07770 | 32045 ft | 355 kts | 282° |
| 2026-02-17 13:48 | 51.55210 | 0.99847 | 32047 ft | 356 kts | 281° |
| 2026-02-17 13:48 | 51.55641 | 0.91913 | 32046 ft | 357 kts | 281° |
| 2026-02-17 13:49 | 51.56113 | 0.83999 | 32048 ft | 358 kts | 281° |
| 2026-02-17 13:49 | 51.56606 | 0.76025 | 32048 ft | 358 kts | 281° |
| 2026-02-17 13:50 | 51.57099 | 0.68055 | 32047 ft | 358 kts | 281° |
| 2026-02-17 13:51 | 51.57822 | 0.56119 | 32049 ft | 356 kts | 281° |
| 2026-02-17 13:51 | 51.58295 | 0.48208 | 32048 ft | 356 kts | 281° |
| 2026-02-17 13:52 | 51.58765 | 0.40272 | 32047 ft | 358 kts | 280° |
| 2026-02-17 13:52 | 51.59232 | 0.32282 | 32073 ft | 359 kts | 280° |
| 2026-02-17 13:53 | 51.59691 | 0.24294 | 32072 ft | 359 kts | 280° |
| 2026-02-17 13:53 | 51.60146 | 0.16297 | 32071 ft | 359 kts | 280° |
| 2026-02-17 13:54 | 51.60521 | 0.09650 | 32069 ft | 359 kts | 280° |
| 2026-02-17 13:54 | 51.60967 | 0.01645 | 32076 ft | 359 kts | 280° |
| 2026-02-17 13:55 | 51.61628 | -0.10397 | 32049 ft | 361 kts | 279° |
| 2026-02-17 13:55 | 51.62094 | -0.18437 | 32048 ft | 361 kts | 280° |
| 2026-02-17 13:56 | 51.62597 | -0.26468 | 32049 ft | 361 kts | 280° |
| 2026-02-17 13:56 | 51.63096 | -0.34498 | 32048 ft | 361 kts | 280° |
| 2026-02-17 13:57 | 51.63582 | -0.42540 | 32075 ft | 361 kts | 280° |
| 2026-02-17 13:57 | 51.64058 | -0.50532 | 32073 ft | 361 kts | 280° |
| 2026-02-17 13:58 | 51.64530 | -0.58575 | 32073 ft | 361 kts | 279° |
| 2026-02-17 13:59 | 51.65226 | -0.70609 | 32067 ft | 361 kts | 279° |
| 2026-02-17 13:59 | 51.65687 | -0.78696 | 32064 ft | 361 kts | 279° |
| 2026-02-17 14:00 | 51.66140 | -0.86756 | 32063 ft | 361 kts | 279° |
| 2026-02-17 14:00 | 51.66590 | -0.94812 | 32074 ft | 361 kts | 279° |
| 2026-02-17 14:01 | 51.67032 | -1.02873 | 32080 ft | 362 kts | 279° |
| 2026-02-17 14:01 | 51.67471 | -1.10975 | 32073 ft | 363 kts | 279° |
| 2026-02-17 14:02 | 51.67902 | -1.19028 | 32066 ft | 363 kts | 279° |
| 2026-02-17 14:02 | 51.68330 | -1.27131 | 32079 ft | 363 kts | 279° |
| 2026-02-17 14:03 | 51.68962 | -1.39304 | 32079 ft | 363 kts | 278° |
| 2026-02-17 14:03 | 51.69376 | -1.47417 | 32065 ft | 363 kts | 278° |
| 2026-02-17 14:04 | 51.69785 | -1.55535 | 32076 ft | 364 kts | 278° |
| 2026-02-17 14:04 | 51.70190 | -1.63671 | 32072 ft | 364 kts | 278° |
| 2026-02-17 14:05 | 51.70582 | -1.71800 | 32071 ft | 364 kts | 277° |
| 2026-02-17 14:05 | 51.70878 | -1.79907 | 32075 ft | 364 kts | 277° |
| 2026-02-17 14:06 | 51.71144 | -1.88067 | 32083 ft | 364 kts | 277° |
| 2026-02-17 14:07 | 51.71555 | -2.00321 | 32080 ft | 365 kts | 276° |
| 2026-02-17 14:07 | 51.71832 | -2.08514 | 32079 ft | 366 kts | 276° |
| 2026-02-17 14:08 | 51.72103 | -2.16707 | 32079 ft | 366 kts | 276° |
| 2026-02-17 14:08 | 51.72368 | -2.24909 | 32076 ft | 366 kts | 276° |
| 2026-02-17 14:09 | 51.72628 | -2.33106 | 32077 ft | 366 kts | 276° |
| 2026-02-17 14:09 | 51.72881 | -2.41301 | 32077 ft | 366 kts | 276° |
| 2026-02-17 14:10 | 51.73131 | -2.49518 | 32082 ft | 367 kts | 275° |
| 2026-02-17 14:10 | 51.73374 | -2.57749 | 32081 ft | 368 kts | 275° |
| 2026-02-17 14:11 | 51.73726 | -2.70066 | 32067 ft | 368 kts | 275° |
| 2026-02-17 14:11 | 51.73955 | -2.78314 | 32074 ft | 368 kts | 275° |
| 2026-02-17 14:12 | 51.74179 | -2.86557 | 32051 ft | 368 kts | 275° |
| 2026-02-17 14:12 | 51.74397 | -2.94787 | 32047 ft | 368 kts | 275° |
| 2026-02-17 14:13 | 51.74610 | -3.03055 | 32043 ft | 368 kts | 275° |
| 2026-02-17 14:13 | 51.74816 | -3.11312 | 32055 ft | 368 kts | 275° |
| 2026-02-17 14:14 | 51.75015 | -3.19559 | 32056 ft | 368 kts | 274° |
| 2026-02-17 14:15 | 51.75304 | -3.31954 | 32058 ft | 368 kts | 274° |
| 2026-02-17 14:15 | 51.75490 | -3.40161 | 32043 ft | 368 kts | 274° |
| 2026-02-17 14:16 | 51.75672 | -3.48441 | 32073 ft | 369 kts | 274° |
| 2026-02-17 14:16 | 51.75847 | -3.56717 | 32066 ft | 368 kts | 274° |
| 2026-02-17 14:17 | 51.76014 | -3.64945 | 32070 ft | 367 kts | 274° |
| 2026-02-17 14:17 | 51.76176 | -3.73185 | 32069 ft | 367 kts | 274° |
| 2026-02-17 14:18 | 51.76334 | -3.81419 | 32061 ft | 367 kts | 273° |
| 2026-02-17 14:18 | 51.76484 | -3.89632 | 32053 ft | 365 kts | 273° |
| 2026-02-17 14:19 | 51.76699 | -4.01968 | 32061 ft | 367 kts | 272° |
| 2026-02-17 14:19 | 51.76835 | -4.10204 | 32056 ft | 367 kts | 272° |
| 2026-02-17 14:20 | 51.76966 | -4.18442 | 32063 ft | 367 kts | 272° |
| 2026-02-17 14:20 | 51.77091 | -4.26678 | 32054 ft | 367 kts | 272° |
| 2026-02-17 14:21 | 51.77210 | -4.34925 | 32053 ft | 367 kts | 272° |
| 2026-02-17 14:21 | 51.77323 | -4.43117 | 32062 ft | 368 kts | 272° |
| 2026-02-17 14:22 | 51.77483 | -4.55519 | 32054 ft | 368 kts | 272° |
| 2026-02-17 14:23 | 51.77602 | -4.67917 | 32051 ft | 368 kts | 271° |
| 2026-02-17 14:23 | 51.77641 | -4.76190 | 32051 ft | 368 kts | 271° |
| 2026-02-17 14:24 | 51.77679 | -4.84465 | 32039 ft | 368 kts | 271° |
| 2026-02-17 14:24 | 51.77716 | -4.92750 | 32048 ft | 369 kts | 271° |
| 2026-02-17 14:25 | 51.77749 | -5.01038 | 32049 ft | 369 kts | 271° |
| 2026-02-17 14:25 | 51.77775 | -5.09335 | 32050 ft | 369 kts | 271° |
| 2026-02-17 14:26 | 51.77796 | -5.17632 | 32046 ft | 369 kts | 271° |
| 2026-02-17 14:27 | 51.77817 | -5.30075 | 32042 ft | 369 kts | 270° |
| 2026-02-17 14:27 | 51.77823 | -5.38371 | 32042 ft | 369 kts | 270° |
| 2026-02-17 14:28 | 51.77824 | -5.46668 | 32033 ft | 369 kts | 270° |
| 2026-02-17 14:28 | 51.77818 | -5.54966 | 32034 ft | 369 kts | 270° |
| 2026-02-17 14:29 | 51.77807 | -5.63265 | 32033 ft | 369 kts | 270° |
| 2026-02-17 14:29 | 51.77790 | -5.71561 | 32029 ft | 369 kts | 270° |
| 2026-02-17 14:30 | 51.77767 | -5.79860 | 32029 ft | 369 kts | 270° |
| 2026-02-17 14:31 | 51.77704 | -5.96447 | 32018 ft | 371 kts | 270° |
| 2026-02-17 14:31 | 51.77663 | -6.04785 | 32015 ft | 371 kts | 269° |
| 2026-02-17 14:32 | 51.77616 | -6.13126 | 32015 ft | 371 kts | 269° |
| 2026-02-17 14:32 | 51.77564 | -6.21468 | 32015 ft | 371 kts | 269° |
| 2026-02-17 14:33 | 51.77506 | -6.29801 | 32007 ft | 371 kts | 269° |
| 2026-02-17 14:33 | 51.77407 | -6.42339 | 32001 ft | 373 kts | 269° |
| 2026-02-17 14:34 | 51.77333 | -6.50710 | 32002 ft | 373 kts | 269° |
| 2026-02-17 14:35 | 51.77212 | -6.63267 | 31988 ft | 373 kts | 269° |
| 2026-02-17 14:35 | 51.77124 | -6.71593 | 31988 ft | 373 kts | 269° |
| 2026-02-17 14:36 | 51.77030 | -6.79963 | 31989 ft | 373 kts | 269° |
| 2026-02-17 14:36 | 51.76930 | -6.88340 | 31980 ft | 374 kts | 268° |
| 2026-02-17 14:37 | 51.76823 | -6.96744 | 31973 ft | 374 kts | 268° |
| 2026-02-17 14:37 | 51.76711 | -7.05155 | 31973 ft | 374 kts | 268° |
| 2026-02-17 14:38 | 51.76592 | -7.13559 | 31967 ft | 374 kts | 268° |
| 2026-02-17 14:38 | 51.76468 | -7.21958 | 31962 ft | 375 kts | 268° |
| 2026-02-17 14:39 | 51.76293 | -7.33151 | 31959 ft | 375 kts | 268° |
| 2026-02-17 14:39 | 51.76154 | -7.41593 | 31949 ft | 376 kts | 268° |
| 2026-02-17 14:40 | 51.76008 | -7.50038 | 31949 ft | 376 kts | 267° |
| 2026-02-17 14:41 | 51.75779 | -7.62709 | 31941 ft | 376 kts | 267° |
| 2026-02-17 14:41 | 51.75618 | -7.71160 | 31941 ft | 376 kts | 267° |
| 2026-02-17 14:42 | 51.75452 | -7.79598 | 31933 ft | 376 kts | 267° |
| 2026-02-17 14:42 | 51.75253 | -7.88040 | 31932 ft | 376 kts | 266° |
| 2026-02-17 14:43 | 51.74693 | -8.00674 | 31914 ft | 376 kts | 265° |
| 2026-02-17 14:43 | 51.74309 | -8.09038 | 31917 ft | 376 kts | 265° |
| 2026-02-17 14:44 | 51.73937 | -8.17450 | 31906 ft | 376 kts | 265° |
| 2026-02-17 14:44 | 51.73567 | -8.25870 | 31906 ft | 376 kts | 265° |
| 2026-02-17 14:45 | 51.73190 | -8.34307 | 31905 ft | 378 kts | 264° |
| 2026-02-17 14:45 | 51.72806 | -8.42763 | 31894 ft | 378 kts | 264° |
| 2026-02-17 14:46 | 51.72416 | -8.51212 | 31884 ft | 378 kts | 264° |
| 2026-02-17 14:47 | 51.71818 | -8.63902 | 31883 ft | 378 kts | 264° |
| 2026-02-17 14:47 | 51.71412 | -8.72356 | 31887 ft | 378 kts | 264° |
| 2026-02-17 14:48 | 51.71003 | -8.80755 | 31879 ft | 379 kts | 263° |
| 2026-02-17 14:48 | 51.70583 | -8.89236 | 31876 ft | 379 kts | 263° |
| 2026-02-17 14:49 | 51.70159 | -8.97699 | 31867 ft | 379 kts | 263° |
| 2026-02-17 14:49 | 51.69726 | -9.06185 | 31867 ft | 379 kts | 263° |
| 2026-02-17 14:50 | 51.69292 | -9.14600 | 31852 ft | 375 kts | 263° |
| 2026-02-17 14:50 | 51.68854 | -9.22982 | 31863 ft | 375 kts | 262° |
| 2026-02-17 14:51 | 51.68183 | -9.35573 | 31841 ft | 377 kts | 262° |
| 2026-02-17 14:51 | 51.67727 | -9.43989 | 31846 ft | 377 kts | 262° |
| 2026-02-17 14:52 | 51.67265 | -9.52400 | 31830 ft | 377 kts | 262° |
| 2026-02-17 14:52 | 51.66797 | -9.60808 | 31836 ft | 377 kts | 262° |
| 2026-02-17 14:53 | 51.66323 | -9.69214 | 31833 ft | 377 kts | 262° |
| 2026-02-17 14:53 | 51.65844 | -9.77624 | 31824 ft | 377 kts | 261° |
| 2026-02-17 14:54 | 51.65361 | -9.85965 | 31828 ft | 377 kts | 261° |
| 2026-02-17 14:55 | 51.64620 | -9.98577 | 31825 ft | 377 kts | 261° |
| 2026-02-17 14:55 | 51.64119 | -10.06986 | 31824 ft | 377 kts | 261° |
| 2026-02-17 14:56 | 51.63612 | -10.15386 | 31818 ft | 377 kts | 261° |
| 2026-02-17 14:56 | 51.63099 | -10.23784 | 31816 ft | 377 kts | 261° |
| 2026-02-17 14:57 | 51.62581 | -10.32178 | 31804 ft | 377 kts | 261° |
| 2026-02-17 14:57 | 51.62056 | -10.40573 | 31800 ft | 377 kts | 261° |
| 2026-02-17 14:58 | 51.61525 | -10.48964 | 31791 ft | 377 kts | 260° |
| 2026-02-17 14:58 | 51.60988 | -10.57353 | 31790 ft | 377 kts | 260° |
| 2026-02-17 14:59 | 51.60176 | -10.69873 | 31785 ft | 377 kts | 259° |
| 2026-02-17 14:59 | 51.59620 | -10.78319 | 31782 ft | 377 kts | 259° |
| 2026-02-17 15:00 | 51.59062 | -10.86704 | 31774 ft | 377 kts | 259° |
| 2026-02-17 15:00 | 51.58498 | -10.95085 | 31777 ft | 377 kts | 259° |
| 2026-02-17 15:01 | 51.57928 | -11.03466 | 31770 ft | 377 kts | 259° |
| 2026-02-17 15:01 | 51.57356 | -11.11789 | 31752 ft | 377 kts | 259° |
| 2026-02-17 15:02 | 51.56788 | -11.20157 | 32138 ft | 376 kts | 260° |
| 2026-02-17 15:02 | 51.56660 | -11.24349 | 32464 ft | 375 kts | 262° |
| 2026-02-17 15:03 | 51.56519 | -11.32682 | 33071 ft | 371 kts | 263° |
| 2026-02-17 15:03 | 51.56465 | -11.36817 | 33333 ft | 369 kts | 263° |
| 2026-02-17 15:03 | 51.56414 | -11.40922 | 33618 ft | 367 kts | 263° |
| 2026-02-17 15:03 | 51.56361 | -11.45031 | 33728 ft | 369 kts | 263° |
| 2026-02-17 15:04 | 51.56304 | -11.49153 | 33743 ft | 370 kts | 263° |
| 2026-02-17 15:04 | 51.56184 | -11.57407 | 33745 ft | 368 kts | 263° |
| 2026-02-17 15:05 | 51.56058 | -11.65628 | 33734 ft | 368 kts | 262° |
| 2026-02-17 15:05 | 51.55925 | -11.73829 | 33726 ft | 366 kts | 262° |
| 2026-02-17 15:06 | 51.55786 | -11.82007 | 33723 ft | 366 kts | 262° |
| 2026-02-17 15:06 | 51.55642 | -11.90171 | 33711 ft | 366 kts | 262° |
| 2026-02-17 15:07 | 51.55416 | -12.02436 | 33699 ft | 366 kts | 262° |
| 2026-02-17 15:07 | 51.55259 | -12.10563 | 33701 ft | 366 kts | 262° |
| 2026-02-17 15:08 | 51.55096 | -12.18743 | 33703 ft | 366 kts | 261° |
| 2026-02-17 15:08 | 51.54926 | -12.26920 | 33686 ft | 366 kts | 261° |
| 2026-02-17 15:09 | 51.54751 | -12.35097 | 33686 ft | 366 kts | 261° |
| 2026-02-17 15:09 | 51.54570 | -12.43279 | 33675 ft | 366 kts | 261° |
| 2026-02-17 15:10 | 51.54383 | -12.51452 | 33675 ft | 366 kts | 261° |
| 2026-02-17 15:11 | 51.54094 | -12.63714 | 33664 ft | 366 kts | 260° |
| 2026-02-17 15:11 | 51.53892 | -12.71906 | 33661 ft | 367 kts | 260° |
| 2026-02-17 15:12 | 51.53686 | -12.80051 | 33649 ft | 367 kts | 260° |
| 2026-02-17 15:12 | 51.53474 | -12.88246 | 33651 ft | 367 kts | 260° |
| 2026-02-17 15:13 | 51.53256 | -12.96435 | 33649 ft | 367 kts | 260° |
| 2026-02-17 15:13 | 51.53032 | -13.04632 | 33630 ft | 367 kts | 260° |
| 2026-02-17 15:14 | 51.52801 | -13.12828 | 33639 ft | 368 kts | 259° |
| 2026-02-17 15:14 | 51.52590 | -13.20077 | 33601 ft | 372 kts | 259° |
| 2026-02-17 15:15 | 51.52250 | -13.27245 | 33105 ft | 379 kts | 258° |
| 2026-02-17 15:15 | 51.52111 | -13.31467 | 33172 ft | 380 kts | 259° |